createdAt,value
2022-10-10T00:01:14.004Z,6.60
2022-10-10T00:03:41.091Z,6.43
2022-10-10T00:06:08.667Z,6.27
2022-10-10T00:08:36.080Z,6.30
2022-10-10T00:11:04.001Z,6.57
2022-10-10T00:13:30.927Z,6.60
2022-10-10T00:15:57.659Z,6.50
2022-10-10T00:18:24.344Z,6.13
2022-10-10T00:20:52.299Z,6.30
2022-10-10T00:23:20.129Z,6.60
2022-10-10T00:25:47.282Z,7.07
2022-10-10T00:28:14.266Z,6.37
2022-10-10T00:30:41.100Z,6.30
2022-10-10T00:33:08.381Z,6.63
2022-10-10T00:35:35.523Z,6.40
2022-10-10T00:38:02.273Z,6.37
2022-10-10T00:40:29.015Z,6.73
2022-10-10T00:42:55.805Z,6.70
2022-10-10T00:45:37.273Z,6.90
2022-10-10T00:48:18.052Z,6.37
2022-10-10T00:50:58.720Z,6.20
2022-10-10T00:53:50.951Z,6.53
2022-10-10T00:56:22.925Z,5.83
2022-10-10T00:58:53.811Z,6.63
2022-10-10T01:01:20.644Z,6.63
2022-10-10T01:03:47.418Z,6.33
2022-10-10T01:06:14.502Z,6.93
2022-10-10T01:08:42.465Z,7.13
2022-10-10T01:11:36.754Z,6.40
2022-10-10T01:14:43.565Z,6.33
2022-10-10T01:17:38.373Z,6.63
2022-10-10T01:20:08.136Z,6.40
2022-10-10T01:23:15.327Z,7.03
2022-10-10T01:26:00.843Z,6.33
2022-10-10T01:28:52.640Z,7.20
2022-10-10T01:31:24.283Z,6.47
2022-10-10T01:34:25.642Z,7.00
2022-10-10T01:37:40.640Z,6.37
2022-10-10T01:40:19.647Z,6.90
2022-10-10T01:42:59.514Z,6.73
2022-10-10T01:45:27.559Z,6.77
2022-10-10T01:47:57.707Z,6.60
2022-10-10T01:50:27.114Z,6.73
2022-10-10T01:53:09.795Z,6.10
2022-10-10T01:56:07.496Z,6.50
2022-10-10T01:58:56.310Z,6.63
2022-10-10T02:01:34.156Z,6.00
2022-10-10T02:04:34.631Z,6.70
2022-10-10T02:07:09.980Z,6.53
2022-10-10T02:09:40.044Z,7.00
2022-10-10T02:12:09.749Z,6.10
2022-10-10T02:14:45.980Z,6.40
2022-10-10T02:17:15.584Z,6.20
2022-10-10T02:19:47.164Z,6.20
2022-10-10T02:22:14.428Z,6.53
2022-10-10T02:24:41.576Z,5.93
2022-10-10T02:27:18.355Z,6.20
2022-10-10T02:29:47.868Z,6.97
2022-10-10T02:32:24.461Z,6.37
2022-10-10T02:34:56.220Z,7.00
2022-10-10T02:37:23.912Z,6.30
2022-10-10T02:39:56.501Z,7.03
2022-10-10T02:42:24.296Z,6.63
2022-10-10T02:44:51.958Z,6.30
2022-10-10T02:47:18.958Z,6.70
2022-10-10T02:49:46.011Z,7.03
2022-10-10T02:52:15.232Z,7.00
2022-10-10T02:54:42.016Z,6.47
2022-10-10T02:57:09.077Z,7.07
2022-10-10T02:59:36.061Z,5.90
2022-10-10T03:02:02.758Z,6.40
2022-10-10T03:04:29.451Z,6.83
2022-10-10T03:06:56.327Z,7.23
2022-10-10T03:09:23.061Z,6.00
2022-10-10T03:11:49.804Z,6.50
2022-10-10T03:14:16.483Z,6.60
2022-10-10T03:16:43.287Z,6.57
2022-10-10T03:19:10.154Z,6.57
2022-10-10T03:21:37.112Z,7.40
2022-10-10T03:24:05.401Z,6.70
2022-10-10T03:26:32.597Z,6.67
2022-10-10T03:28:59.399Z,6.93
2022-10-10T03:31:26.098Z,6.67
2022-10-10T03:33:52.816Z,6.10
2022-10-10T03:36:19.537Z,6.80
2022-10-10T03:38:46.873Z,6.90
2022-10-10T03:41:13.615Z,6.40
2022-10-10T03:43:40.337Z,6.87
2022-10-10T03:46:07.154Z,6.20
2022-10-10T03:48:33.960Z,7.07
2022-10-10T03:51:00.704Z,6.50
2022-10-10T03:53:27.530Z,6.33
2022-10-10T03:55:55.534Z,6.33
2022-10-10T03:58:23.977Z,7.10
2022-10-10T04:00:59.752Z,6.97
2022-10-10T04:03:27.038Z,7.57
2022-10-10T04:05:54.463Z,8.30
2022-10-10T04:08:21.405Z,8.57
2022-10-10T04:10:49.351Z,7.47
2022-10-10T04:13:16.509Z,8.03
2022-10-10T04:15:43.339Z,8.10
2022-10-10T04:18:10.122Z,7.77
2022-10-10T04:20:36.867Z,8.33
2022-10-10T04:23:04.336Z,7.37
2022-10-10T04:25:31.235Z,7.60
2022-10-10T04:28:01.007Z,7.60
2022-10-10T04:30:32.780Z,7.90
2022-10-10T04:32:59.557Z,7.80
2022-10-10T04:35:26.619Z,7.90
2022-10-10T04:37:53.580Z,8.37
2022-10-10T04:40:26.183Z,7.93
2022-10-10T04:42:54.585Z,8.13
2022-10-10T04:45:21.465Z,8.00
2022-10-10T04:47:48.224Z,8.73
2022-10-10T04:50:14.910Z,8.43
2022-10-10T04:52:41.684Z,8.93
2022-10-10T04:55:08.473Z,8.37
2022-10-10T04:57:35.216Z,8.70
2022-10-10T05:00:02.260Z,8.63
2022-10-10T05:02:28.897Z,9.73
2022-10-10T05:04:55.543Z,9.37
2022-10-10T05:07:22.225Z,9.07
2022-10-10T05:09:49.174Z,9.13
2022-10-10T05:12:15.911Z,8.70
2022-10-10T05:14:47.814Z,9.13
2022-10-10T05:17:15.342Z,8.97
2022-10-10T05:19:42.643Z,8.97
2022-10-10T05:22:09.532Z,9.47
2022-10-10T05:24:36.320Z,10.20
2022-10-10T05:27:03.007Z,8.60
2022-10-10T05:29:29.675Z,8.80
2022-10-10T05:31:56.328Z,9.27
2022-10-10T05:34:23.239Z,8.73
2022-10-10T05:36:49.971Z,8.77
2022-10-10T05:39:16.852Z,9.20
2022-10-10T05:41:43.562Z,9.23
2022-10-10T05:44:10.326Z,8.27
2022-10-10T05:46:37.071Z,8.53
2022-10-10T05:49:03.880Z,8.40
2022-10-10T05:51:30.662Z,8.27
2022-10-10T05:53:57.608Z,8.50
2022-10-10T05:56:24.653Z,7.77
2022-10-10T05:58:51.730Z,7.30
2022-10-10T06:01:18.587Z,6.87
2022-10-10T06:03:45.317Z,7.00
2022-10-10T06:06:12.054Z,6.50
2022-10-10T06:08:38.910Z,6.57
2022-10-10T06:11:11.098Z,6.80
2022-10-10T06:13:39.116Z,6.63
2022-10-10T06:16:05.944Z,6.03
2022-10-10T06:18:32.766Z,6.40
2022-10-10T06:21:04.436Z,5.80
2022-10-10T06:23:31.721Z,6.17
2022-10-10T06:25:58.701Z,6.60
2022-10-10T06:28:25.752Z,6.03
2022-10-10T06:30:52.639Z,7.03
2022-10-10T06:33:19.726Z,7.00
2022-10-10T06:35:48.730Z,6.37
2022-10-10T06:38:16.896Z,7.40
2022-10-10T06:40:43.947Z,7.13
2022-10-10T06:43:12.379Z,6.93
2022-10-10T06:45:40.733Z,6.27
2022-10-10T06:48:08.476Z,6.97
2022-10-10T06:50:35.916Z,6.20
2022-10-10T06:53:03.073Z,7.00
2022-10-10T06:55:29.777Z,7.37
2022-10-10T06:57:57.077Z,7.90
2022-10-10T07:00:24.543Z,9.90
2022-10-10T07:02:52.762Z,9.40
2022-10-10T07:05:19.947Z,7.73
2022-10-10T07:07:46.806Z,8.30
2022-10-10T07:10:15.750Z,8.40
2022-10-10T07:12:45.944Z,9.13
2022-10-10T07:15:13.470Z,8.47
2022-10-10T07:17:41.400Z,7.37
2022-10-10T07:20:08.549Z,6.97
2022-10-10T07:22:35.511Z,7.10
2022-10-10T07:25:02.315Z,7.33
2022-10-10T07:27:29.049Z,7.40
2022-10-10T07:29:55.803Z,7.77
2022-10-10T07:32:22.555Z,8.03
2022-10-10T07:34:50.855Z,7.97
2022-10-10T07:37:17.851Z,8.40
2022-10-10T07:39:45.168Z,9.03
2022-10-10T07:42:12.602Z,8.30
2022-10-10T07:44:39.572Z,8.90
2022-10-10T07:47:06.850Z,8.47
2022-10-10T07:49:33.909Z,8.73
2022-10-10T07:52:01.791Z,8.07
2022-10-10T07:54:30.371Z,8.47
2022-10-10T07:56:58.038Z,8.60
2022-10-10T07:59:25.674Z,8.17
2022-10-10T08:01:52.524Z,8.87
2022-10-10T08:04:19.789Z,8.23
2022-10-10T08:06:46.579Z,9.10
2022-10-10T08:09:13.309Z,8.50
2022-10-10T08:11:40.106Z,8.50
2022-10-10T08:14:06.854Z,8.70
2022-10-10T08:16:33.604Z,8.73
2022-10-10T08:19:00.360Z,9.47
2022-10-10T08:21:27.282Z,9.00
2022-10-10T08:23:54.067Z,8.67
2022-10-10T08:26:20.943Z,9.57
2022-10-10T08:28:48.795Z,9.00
2022-10-10T08:31:18.724Z,9.40
2022-10-10T08:33:46.941Z,9.17
2022-10-10T08:36:16.881Z,9.40
2022-10-10T08:38:44.011Z,9.63
2022-10-10T08:41:25.576Z,9.97
2022-10-10T08:43:57.499Z,9.57
2022-10-10T08:46:42.278Z,8.37
2022-10-10T08:49:34.331Z,8.47
2022-10-10T08:52:27.213Z,8.30
2022-10-10T08:54:58.344Z,8.30
2022-10-10T08:57:30.038Z,8.07
2022-10-10T09:00:03.465Z,7.70
2022-10-10T09:02:53.533Z,7.80
2022-10-10T09:05:35.358Z,8.50
2022-10-10T09:08:22.184Z,7.75
2022-10-10T09:11:13.517Z,8.00
2022-10-10T09:14:02.052Z,7.40
2022-10-10T09:16:56.797Z,7.88
2022-10-10T09:19:55.607Z,7.65
2022-10-10T09:22:30.854Z,8.15
2022-10-10T09:25:15.812Z,7.80
2022-10-10T09:27:48.214Z,8.68
2022-10-10T09:30:19.513Z,8.52
2022-10-10T09:33:24.291Z,9.02
2022-10-10T09:35:54.936Z,8.57
2022-10-10T09:38:41.603Z,8.18
2022-10-10T09:41:13.276Z,8.38
2022-10-10T09:43:41.160Z,9.00
2022-10-10T09:46:07.859Z,8.82
2022-10-10T09:48:42.531Z,8.95
2022-10-10T09:51:15.516Z,8.60
2022-10-10T09:53:43.756Z,8.40
2022-10-10T09:56:23.057Z,8.13
2022-10-10T09:58:52.373Z,7.85
2022-10-10T10:01:31.677Z,9.13
2022-10-10T10:04:34.481Z,8.00
2022-10-10T10:07:26.480Z,8.45
2022-10-10T10:09:59.598Z,8.68
2022-10-10T10:12:38.187Z,8.50
2022-10-10T10:15:16.500Z,8.57
2022-10-10T10:17:43.406Z,8.20
2022-10-10T10:20:35.465Z,8.07
2022-10-10T10:23:02.158Z,8.30
2022-10-10T10:25:39.902Z,8.30
2022-10-10T10:28:13.042Z,8.00
2022-10-10T10:30:41.059Z,7.95
2022-10-10T10:33:29.846Z,8.55
2022-10-10T10:36:30.876Z,8.00
2022-10-10T10:39:00.620Z,8.48
2022-10-10T10:41:45.125Z,8.60
2022-10-10T10:44:49.199Z,9.25
2022-10-10T10:47:21.799Z,7.80
2022-10-10T10:50:00.594Z,8.02
2022-10-10T10:52:39.509Z,8.20
2022-10-10T10:55:18.518Z,7.95
2022-10-10T10:58:22.310Z,8.45
2022-10-10T12:08:38.850Z,7.90
2022-10-10T12:11:21.680Z,7.85
2022-10-10T12:13:58.433Z,8.02
2022-10-10T12:16:30.654Z,7.80
2022-10-10T12:19:02.164Z,7.30
2022-10-10T12:21:30.142Z,8.27
2022-10-10T12:24:12.787Z,8.88
2022-10-10T12:26:54.819Z,8.32
2022-10-10T12:29:50.923Z,8.65
2022-10-10T12:32:21.172Z,8.48
2022-10-10T12:34:47.837Z,8.00
2022-10-10T12:37:26.123Z,8.50
2022-10-10T12:40:07.926Z,8.50
2022-10-10T12:42:48.294Z,8.65
2022-10-10T12:45:30.407Z,8.40
2022-10-10T12:48:06.626Z,8.73
2022-10-10T12:50:40.308Z,8.18
2022-10-10T12:53:13.109Z,8.68
2022-10-10T12:55:52.308Z,8.45
2022-10-10T12:58:37.143Z,8.60
2022-10-10T13:01:23.248Z,8.10
2022-10-10T13:03:52.069Z,8.18
2022-10-10T13:06:24.587Z,8.60
2022-10-10T13:08:53.633Z,8.70
2022-10-10T13:11:20.424Z,8.75
2022-10-10T13:13:54.191Z,8.95
2022-10-10T13:16:29.918Z,8.80
2022-10-10T13:18:59.597Z,7.90
2022-10-10T13:21:33.979Z,8.80
2022-10-10T13:24:04.420Z,8.75
2022-10-10T13:26:34.421Z,8.38
2022-10-10T13:29:25.095Z,8.30
2022-10-10T13:31:54.170Z,8.75
2022-10-10T13:34:27.856Z,8.68
2022-10-10T13:36:56.988Z,9.20
2022-10-10T13:39:24.524Z,8.50
2022-10-10T13:41:52.358Z,9.20
2022-10-10T13:44:47.078Z,8.75
2022-10-10T13:47:35.616Z,8.40
2022-10-10T13:50:03.681Z,8.55
2022-10-10T13:52:30.503Z,9.57
2022-10-10T13:55:24.405Z,8.90
2022-10-10T13:57:53.344Z,8.77
2022-10-10T14:00:22.228Z,8.85
2022-10-10T14:02:50.473Z,8.68
2022-10-10T14:05:37.582Z,8.63
2022-10-10T14:08:04.841Z,8.60
2022-10-10T14:10:37.022Z,8.27
2022-10-10T14:13:03.780Z,9.32
2022-10-10T14:15:35.807Z,8.43
2022-10-10T14:18:10.542Z,8.48
2022-10-10T14:20:37.599Z,8.60
2022-10-10T14:23:04.957Z,8.45
2022-10-10T14:25:32.184Z,8.73
2022-10-10T14:27:58.911Z,8.50
2022-10-10T14:30:25.743Z,8.63
2022-10-10T14:32:52.455Z,8.43
2022-10-10T14:35:19.173Z,8.35
2022-10-10T14:37:45.913Z,8.57
2022-10-10T14:40:21.931Z,8.77
2022-10-10T14:42:49.082Z,8.00
2022-10-10T14:45:16.928Z,8.65
2022-10-10T14:47:43.770Z,8.65
2022-10-10T14:50:23.379Z,8.93
2022-10-10T14:52:50.344Z,7.85
2022-10-10T14:55:17.059Z,8.27
2022-10-10T14:57:43.784Z,8.35
2022-10-10T15:00:17.100Z,8.40
2022-10-10T15:02:45.781Z,8.35
2022-10-10T15:05:13.434Z,8.45
2022-10-10T15:07:40.654Z,8.23
2022-10-10T15:10:32.612Z,8.68
2022-10-10T15:12:55.438Z,8.80
2022-10-10T15:15:22.271Z,8.35
2022-10-10T15:17:50.756Z,8.60
2022-10-10T15:20:17.660Z,8.25
2022-10-10T15:22:46.057Z,8.50
2022-10-10T15:25:12.917Z,8.73
2022-10-10T15:27:39.634Z,8.77
2022-10-10T15:30:07.531Z,9.00
2022-10-10T15:32:38.182Z,8.30
2022-10-10T15:35:05.175Z,9.32
2022-10-10T15:37:31.909Z,8.60
2022-10-10T15:39:59.340Z,8.50
2022-10-10T15:42:26.097Z,9.00
2022-10-10T15:44:52.883Z,8.73
2022-10-10T15:47:20.778Z,8.65
2022-10-10T15:49:47.975Z,9.82
2022-10-10T15:52:15.108Z,8.73
2022-10-10T15:54:42.015Z,8.73
2022-10-10T15:57:09.456Z,8.43
2022-10-10T15:59:38.087Z,8.32
2022-10-10T16:02:07.517Z,8.68
2022-10-10T16:04:34.272Z,8.25
2022-10-10T16:09:47.659Z,8.45
2022-10-10T16:12:14.377Z,8.35
2022-10-10T16:14:41.089Z,7.95
2022-10-10T16:17:07.834Z,8.15
2022-10-10T16:19:34.679Z,8.70
2022-10-10T16:22:01.382Z,8.13
2022-10-10T16:24:28.194Z,8.70
2022-10-10T16:26:54.902Z,8.23
2022-10-10T16:29:21.653Z,8.30
2022-10-10T16:31:48.343Z,8.30
2022-10-10T16:34:16.032Z,8.15
2022-10-10T16:36:42.829Z,8.05
2022-10-10T16:39:09.760Z,8.15
2022-10-10T16:41:52.164Z,8.18
2022-10-10T16:44:18.942Z,7.75
2022-10-10T16:46:45.759Z,8.40
2022-10-10T16:49:16.246Z,8.70
2022-10-10T16:51:43.119Z,7.65
2022-10-10T16:54:09.809Z,7.07
2022-10-10T16:56:36.981Z,7.35
2022-10-10T16:59:04.237Z,7.30
2022-10-10T17:01:31.606Z,7.40
2022-10-10T17:03:59.965Z,6.95
2022-10-10T17:06:32.560Z,7.03
2022-10-10T17:09:02.637Z,6.93
2022-10-10T17:11:29.655Z,7.65
2022-10-10T17:13:56.599Z,6.35
2022-10-10T17:19:12.768Z,6.18
2022-10-10T17:21:39.652Z,6.93
2022-10-10T17:24:06.706Z,7.15
2022-10-10T17:26:33.497Z,7.75
2022-10-10T17:29:00.613Z,6.43
2022-10-10T17:31:27.513Z,6.90
2022-10-10T17:33:55.004Z,6.28
2022-10-10T17:36:27.311Z,6.70
2022-10-10T17:39:00.195Z,7.55
2022-10-10T17:41:27.642Z,7.05
2022-10-10T17:43:54.509Z,6.97
2022-10-10T17:46:34.746Z,6.95
2022-10-10T17:49:04.501Z,7.20
2022-10-10T17:51:31.272Z,6.78
2022-10-10T17:54:02.213Z,6.00
2022-10-10T17:56:29.298Z,6.03
2022-10-10T17:58:56.188Z,6.38
2022-10-10T18:01:23.106Z,7.18
2022-10-10T18:03:50.011Z,7.43
2022-10-10T18:06:23.424Z,7.57
2022-10-10T18:08:52.206Z,7.30
2022-10-10T18:11:22.522Z,7.95
2022-10-10T18:13:49.790Z,7.90
2022-10-10T18:16:19.510Z,6.38
2022-10-10T18:18:50.958Z,7.57
2022-10-10T18:21:20.900Z,6.65
2022-10-10T18:23:48.427Z,6.55
2022-10-10T18:26:19.235Z,6.10
2022-10-10T18:28:46.235Z,6.13
2022-10-10T18:31:19.833Z,6.93
2022-10-10T18:33:46.928Z,6.43
2022-10-10T18:36:16.221Z,6.22
2022-10-10T18:38:43.222Z,6.20
2022-10-10T18:41:16.815Z,6.22
2022-10-10T18:43:44.745Z,6.40
2022-10-10T18:46:14.162Z,6.18
2022-10-10T18:48:41.978Z,6.10
2022-10-10T18:51:18.751Z,6.38
2022-10-10T18:53:46.447Z,6.07
2022-10-10T18:56:18.411Z,6.10
2022-10-10T18:58:45.171Z,6.45
2022-10-10T19:01:14.244Z,6.65
2022-10-10T19:03:42.671Z,6.32
2022-10-10T19:06:12.795Z,7.10
2022-10-10T19:08:40.727Z,6.13
2022-10-10T19:11:08.833Z,6.57
2022-10-10T19:13:36.282Z,6.00
2022-10-10T19:16:04.754Z,7.22
2022-10-10T19:18:31.913Z,6.25
2022-10-10T19:21:03.802Z,6.38
2022-10-10T19:23:32.187Z,6.20
2022-10-10T19:26:04.283Z,5.82
2022-10-10T19:28:32.198Z,6.95
2022-10-10T19:31:07.385Z,6.53
2022-10-10T19:33:34.401Z,6.07
2022-10-10T19:36:03.428Z,6.63
2022-10-10T19:38:33.138Z,6.18
2022-10-10T19:41:00.369Z,6.35
2022-10-10T19:43:27.849Z,6.28
2022-10-10T19:45:54.834Z,6.30
2022-10-10T19:48:23.674Z,6.72
2022-10-10T19:50:51.450Z,6.40
2022-10-10T19:53:18.918Z,7.10
2022-10-10T19:55:56.749Z,7.90
2022-10-10T19:58:23.959Z,7.13
2022-10-10T20:00:50.802Z,7.70
2022-10-10T20:03:18.141Z,7.20
2022-10-10T20:05:45.001Z,7.30
2022-10-10T20:08:11.970Z,7.03
2022-10-10T20:10:43.099Z,7.40
2022-10-10T20:13:14.790Z,7.75
2022-10-10T20:15:46.954Z,7.15
2022-10-10T20:18:13.842Z,6.28
2022-10-10T20:20:49.929Z,6.97
2022-10-10T20:23:19.680Z,7.37
2022-10-10T20:25:46.674Z,7.28
2022-10-10T20:28:15.700Z,7.13
2022-10-10T20:30:45.338Z,6.70
2022-10-10T20:33:12.198Z,6.68
2022-10-10T20:35:38.972Z,7.18
2022-10-10T20:38:05.733Z,6.75
2022-10-10T20:40:32.607Z,7.18
2022-10-10T20:42:59.400Z,6.55
2022-10-10T20:45:26.214Z,7.22
2022-10-10T20:47:52.952Z,6.60
2022-10-10T20:50:19.681Z,6.53
2022-10-10T20:52:46.544Z,6.15
2022-10-10T20:55:13.536Z,6.80
2022-10-10T20:57:40.449Z,6.50
2022-10-10T21:00:08.085Z,6.10
2022-10-10T21:02:34.825Z,7.68
2022-10-10T21:05:01.609Z,6.22
2022-10-10T21:07:29.116Z,6.07
2022-10-10T21:09:55.846Z,6.45
2022-10-10T21:12:22.665Z,7.10
2022-10-10T21:14:49.429Z,7.35
2022-10-10T21:17:16.199Z,7.03
2022-10-10T21:19:43.040Z,6.53
2022-10-10T21:22:09.940Z,8.30
2022-10-10T21:24:36.705Z,7.37
2022-10-10T21:27:03.650Z,7.03
2022-10-10T21:29:30.420Z,6.33
2022-10-10T21:31:57.171Z,6.78
2022-10-10T21:34:23.952Z,7.03
2022-10-10T21:36:50.717Z,7.20
2022-10-10T21:39:17.553Z,7.20
2022-10-10T21:41:44.430Z,6.23
2022-10-10T21:44:11.522Z,6.30
2022-10-10T21:46:38.278Z,6.60
2022-10-10T21:49:08.875Z,6.50
2022-10-10T21:51:41.714Z,7.47
2022-10-10T21:54:09.432Z,7.43
2022-10-10T21:56:36.757Z,7.33
2022-10-10T21:59:03.877Z,8.53
2022-10-10T22:01:33.871Z,7.80
2022-10-10T22:04:01.799Z,8.17
2022-10-10T22:06:29.106Z,7.30
2022-10-10T22:08:57.940Z,7.65
2022-10-10T22:11:26.881Z,7.83
2022-10-10T22:13:53.818Z,8.10
2022-10-10T22:16:21.046Z,7.70
2022-10-10T22:18:48.207Z,7.67
2022-10-10T22:21:16.569Z,7.60
2022-10-10T22:23:44.669Z,8.40
2022-10-10T22:26:13.874Z,6.78
2022-10-10T22:28:41.331Z,7.83
2022-10-10T22:31:10.553Z,8.20
2022-10-10T22:33:37.677Z,8.53
2022-10-10T22:36:05.671Z,6.63
2022-10-10T22:38:37.310Z,7.17
2022-10-10T22:41:04.155Z,6.17
2022-10-10T22:43:31.499Z,5.82
2022-10-10T22:45:58.341Z,6.93
2022-10-10T22:48:25.055Z,7.20
2022-10-10T22:51:08.990Z,6.80
2022-10-10T22:53:36.366Z,7.43
2022-10-10T22:56:03.902Z,7.05
2022-10-10T22:58:32.227Z,7.87
2022-10-10T23:01:08.040Z,7.27
2022-10-10T23:03:34.833Z,6.43
2022-10-10T23:06:02.515Z,6.97
2022-10-10T23:08:29.479Z,7.47
2022-10-10T23:10:56.243Z,6.70
2022-10-10T23:13:23.133Z,6.10
2022-10-10T23:15:49.950Z,6.60
2022-10-10T23:18:16.752Z,6.33
2022-10-10T23:20:46.787Z,6.70
2022-10-10T23:23:14.371Z,6.97
2022-10-10T23:25:42.739Z,6.33
2022-10-10T23:28:10.573Z,7.27
2022-10-10T23:30:42.093Z,7.27
2022-10-10T23:33:09.289Z,8.03
2022-10-10T23:35:36.090Z,8.37
2022-10-10T23:38:03.522Z,8.27
2022-10-10T23:40:31.357Z,8.13
2022-10-10T23:42:58.428Z,9.13
2022-10-10T23:45:25.242Z,8.97
2022-10-10T23:47:51.928Z,9.00
2022-10-10T23:50:18.769Z,8.63
2022-10-10T23:52:45.510Z,8.20
2022-10-10T23:55:12.209Z,8.63
2022-10-10T23:57:38.873Z,8.48
